Nearby METAR Reports

 

LIRQ - Firenze, Italy
Distance from station: NNE 20km
Actualización: 18/06/2018 01:20
Despejado
Despejado
 Viento del E
Viento: E 4 km/h
Temperatura: 19°C
Rocío: 15°C
Humedad: 78%
Barómetro: 1014 hPa
Resumen: Despejado
Visibility: greater than 10 km
2018/06/17 23:20 LIRQ 172320Z 08002KT CAVOK 19/15 Q1014
LIRP - Pisa, Italy
Distance from station: O 55km
Actualización: 18/06/2018 01:15
Parcialmente nuboso
Parcialmente nuboso
 Viento del O
Viento: O 6 km/h
Temperatura: 20°C
Rocío: 19°C
Humedad: 94%
Barómetro: 1015 hPa
Clouds: Parcialmente nuboso
Visibility: 10 km
Cloud details: Parcialmente nuboso 305 m
2018/06/17 23:15 LIRP 172315Z 28003KT 9999 SCT010 20/19 Q1015 NOSIG
 
LIVC - Monte Cimone, Italy
Distance from station: NNO 69km
Actualización: 15/06/2018 09:55
NOT Current
Niebla
Niebla
 Viento del NNE
Viento: NNE 31 km/h
Temperatura: 6°C
Wind Chill: 1°C
Rocío: 5°C
Humedad: 93%
Barómetro: 1017 hPa
Resumen: Niebla
Visibility: 0 km
2018/06/15 07:55 LIVC 150755Z 03017KT 0000 FG VV/// 06/05 Q1017 RMK MON INVIS VAL INVIS VIS MIN 0000
LIRS - Grosseto, Italy
Distance from station: S 98km
Actualización: 18/06/2018 00:55
Despejado
Despejado
 Viento del NE
Viento: NE 9 km/h
Temperatura: 20°C
Rocío: 19°C
Humedad: 94%
Barómetro: 1013 hPa
Resumen: Despejado
Visibility: greater than 10 km
2018/06/17 22:55 LIRS 172255Z 05005KT CAVOK 20/19 Q1013